sensor_id;sensor_type;location;lat;lon;timestamp;P1;durP1;ratioP1;P2;durP2;ratioP2
42200;SDS011;27869;51.442;7.540;2022-12-29T00:00:19;1.20;;;0.60;;
42200;SDS011;27869;51.442;7.540;2022-12-29T00:02:48;1.85;;;0.90;;
42200;SDS011;27869;51.442;7.540;2022-12-29T00:05:15;3.80;;;1.10;;
42200;SDS011;27869;51.442;7.540;2022-12-29T00:07:42;2.22;;;0.80;;
42200;SDS011;27869;51.442;7.540;2022-12-29T00:10:08;1.95;;;0.80;;
42200;SDS011;27869;51.442;7.540;2022-12-29T00:12:35;1.83;;;0.90;;
42200;SDS011;27869;51.442;7.540;2022-12-29T00:15:19;1.10;;;0.50;;
42200;SDS011;27869;51.442;7.540;2022-12-29T00:18:06;1.02;;;0.60;;
42200;SDS011;27869;51.442;7.540;2022-12-29T00:20:34;2.30;;;0.73;;
42200;SDS011;27869;51.442;7.540;2022-12-29T00:23:18;1.98;;;0.98;;
42200;SDS011;27869;51.442;7.540;2022-12-29T00:26:03;1.88;;;0.80;;
42200;SDS011;27869;51.442;7.540;2022-12-29T00:28:48;3.22;;;0.80;;
42200;SDS011;27869;51.442;7.540;2022-12-29T00:31:34;2.00;;;0.63;;
42200;SDS011;27869;51.442;7.540;2022-12-29T00:34:19;1.15;;;0.40;;
42200;SDS011;27869;51.442;7.540;2022-12-29T00:37:04;4.20;;;0.77;;
42200;SDS011;27869;51.442;7.540;2022-12-29T00:39:31;2.83;;;0.80;;
42200;SDS011;27869;51.442;7.540;2022-12-29T00:42:15;1.98;;;0.70;;
42200;SDS011;27869;51.442;7.540;2022-12-29T00:44:59;0.77;;;0.40;;
42200;SDS011;27869;51.442;7.540;2022-12-29T00:47:26;0.80;;;0.45;;
42200;SDS011;27869;51.442;7.540;2022-12-29T00:49:54;1.13;;;0.52;;
42200;SDS011;27869;51.442;7.540;2022-12-29T00:52:20;1.27;;;0.50;;
42200;SDS011;27869;51.442;7.540;2022-12-29T00:54:47;0.95;;;0.63;;
42200;SDS011;27869;51.442;7.540;2022-12-29T00:57:14;2.25;;;0.60;;
42200;SDS011;27869;51.442;7.540;2022-12-29T00:59:41;2.28;;;0.95;;
42200;SDS011;27869;51.442;7.540;2022-12-29T01:02:10;2.13;;;0.70;;
42200;SDS011;27869;51.442;7.540;2022-12-29T01:04:37;1.25;;;0.50;;
42200;SDS011;27869;51.442;7.540;2022-12-29T01:07:05;1.52;;;0.60;;
42200;SDS011;27869;51.442;7.540;2022-12-29T01:09:32;0.60;;;0.40;;
42200;SDS011;27869;51.442;7.540;2022-12-29T01:12:17;0.40;;;0.30;;
42200;SDS011;27869;51.442;7.540;2022-12-29T01:15:05;0.90;;;0.60;;
42200;SDS011;27869;51.442;7.540;2022-12-29T01:17:34;0.38;;;0.22;;
42200;SDS011;27869;51.442;7.540;2022-12-29T01:20:01;1.13;;;0.70;;
42200;SDS011;27869;51.442;7.540;2022-12-29T01:22:29;0.65;;;0.50;;
42200;SDS011;27869;51.442;7.540;2022-12-29T01:24:56;0.50;;;0.35;;
42200;SDS011;27869;51.442;7.540;2022-12-29T01:27:23;0.70;;;0.55;;
42200;SDS011;27869;51.442;7.540;2022-12-29T01:29:50;0.85;;;0.52;;
42200;SDS011;27869;51.442;7.540;2022-12-29T01:32:17;1.92;;;0.50;;
42200;SDS011;27869;51.442;7.540;2022-12-29T01:34:44;1.13;;;0.50;;
42200;SDS011;27869;51.442;7.540;2022-12-29T01:37:11;0.65;;;0.40;;
42200;SDS011;27869;51.442;7.540;2022-12-29T01:39:39;1.10;;;0.50;;
42200;SDS011;27869;51.442;7.540;2022-12-29T01:42:08;1.20;;;0.40;;
42200;SDS011;27869;51.442;7.540;2022-12-29T01:44:52;0.88;;;0.40;;
42200;SDS011;27869;51.442;7.540;2022-12-29T01:47:26;0.68;;;0.30;;
42200;SDS011;27869;51.442;7.540;2022-12-29T01:49:58;1.65;;;0.60;;
42200;SDS011;27869;51.442;7.540;2022-12-29T01:52:28;0.77;;;0.17;;
42200;SDS011;27869;51.442;7.540;2022-12-29T01:54:59;0.47;;;0.30;;
42200;SDS011;27869;51.442;7.540;2022-12-29T01:57:29;1.55;;;0.30;;
42200;SDS011;27869;51.442;7.540;2022-12-29T02:00:01;1.38;;;0.47;;
42200;SDS011;27869;51.442;7.540;2022-12-29T02:02:30;0.38;;;0.30;;
42200;SDS011;27869;51.442;7.540;2022-12-29T02:04:57;1.42;;;0.60;;
42200;SDS011;27869;51.442;7.540;2022-12-29T02:07:29;0.63;;;0.40;;
42200;SDS011;27869;51.442;7.540;2022-12-29T02:09:55;1.17;;;0.60;;
42200;SDS011;27869;51.442;7.540;2022-12-29T02:12:24;0.40;;;0.30;;
42200;SDS011;27869;51.442;7.540;2022-12-29T02:14:53;0.52;;;0.30;;
42200;SDS011;27869;51.442;7.540;2022-12-29T02:17:28;2.60;;;0.43;;
42200;SDS011;27869;51.442;7.540;2022-12-29T02:20:29;0.65;;;0.38;;
42200;SDS011;27869;51.442;7.540;2022-12-29T02:23:34;1.17;;;0.60;;
42200;SDS011;27869;51.442;7.540;2022-12-29T02:26:30;0.60;;;0.40;;
42200;SDS011;27869;51.442;7.540;2022-12-29T02:29:20;0.65;;;0.40;;
42200;SDS011;27869;51.442;7.540;2022-12-29T02:32:12;0.80;;;0.40;;
42200;SDS011;27869;51.442;7.540;2022-12-29T02:34:46;1.00;;;0.50;;
42200;SDS011;27869;51.442;7.540;2022-12-29T02:37:19;0.45;;;0.38;;
42200;SDS011;27869;51.442;7.540;2022-12-29T02:39:52;0.38;;;0.20;;
42200;SDS011;27869;51.442;7.540;2022-12-29T02:42:27;1.58;;;0.35;;
42200;SDS011;27869;51.442;7.540;2022-12-29T02:45:03;0.82;;;0.40;;
42200;SDS011;27869;51.442;7.540;2022-12-29T02:47:37;1.55;;;0.30;;
42200;SDS011;27869;51.442;7.540;2022-12-29T02:50:08;1.00;;;0.50;;
42200;SDS011;27869;51.442;7.540;2022-12-29T02:52:45;0.73;;;0.40;;
42200;SDS011;27869;51.442;7.540;2022-12-29T02:55:14;0.38;;;0.35;;
42200;SDS011;27869;51.442;7.540;2022-12-29T02:57:40;1.92;;;0.35;;
42200;SDS011;27869;51.442;7.540;2022-12-29T03:00:08;1.33;;;0.45;;
42200;SDS011;27869;51.442;7.540;2022-12-29T03:08:39;2.20;;;0.50;;
42200;SDS011;27869;51.442;7.540;2022-12-29T03:11:12;1.60;;;0.45;;
42200;SDS011;27869;51.442;7.540;2022-12-29T03:13:55;0.93;;;0.40;;
42200;SDS011;27869;51.442;7.540;2022-12-29T03:16:44;0.68;;;0.22;;
42200;SDS011;27869;51.442;7.540;2022-12-29T03:19:16;1.55;;;0.63;;
42200;SDS011;27869;51.442;7.540;2022-12-29T03:21:49;1.05;;;0.40;;
42200;SDS011;27869;51.442;7.540;2022-12-29T03:24:39;1.75;;;0.52;;
42200;SDS011;27869;51.442;7.540;2022-12-29T03:27:10;1.92;;;0.40;;
42200;SDS011;27869;51.442;7.540;2022-12-29T03:29:41;0.65;;;0.30;;
42200;SDS011;27869;51.442;7.540;2022-12-29T03:32:12;1.25;;;0.57;;
42200;SDS011;27869;51.442;7.540;2022-12-29T03:34:42;4.38;;;0.70;;
42200;SDS011;27869;51.442;7.540;2022-12-29T03:37:10;2.05;;;0.60;;
42200;SDS011;27869;51.442;7.540;2022-12-29T03:39:40;2.90;;;0.70;;
42200;SDS011;27869;51.442;7.540;2022-12-29T03:42:09;1.17;;;0.55;;
42200;SDS011;27869;51.442;7.540;2022-12-29T03:44:40;3.65;;;0.73;;
42200;SDS011;27869;51.442;7.540;2022-12-29T03:49:36;2.78;;;0.80;;
42200;SDS011;27869;51.442;7.540;2022-12-29T03:52:04;2.97;;;0.68;;
42200;SDS011;27869;51.442;7.540;2022-12-29T03:54:31;2.72;;;0.60;;
42200;SDS011;27869;51.442;7.540;2022-12-29T03:56:58;3.13;;;0.70;;
42200;SDS011;27869;51.442;7.540;2022-12-29T03:59:25;1.48;;;0.60;;
42200;SDS011;27869;51.442;7.540;2022-12-29T04:01:52;3.30;;;0.65;;
42200;SDS011;27869;51.442;7.540;2022-12-29T04:04:19;1.73;;;0.50;;
42200;SDS011;27869;51.442;7.540;2022-12-29T04:06:46;2.60;;;0.80;;
42200;SDS011;27869;51.442;7.540;2022-12-29T04:09:14;1.08;;;0.60;;
42200;SDS011;27869;51.442;7.540;2022-12-29T04:11:41;3.58;;;0.70;;
42200;SDS011;27869;51.442;7.540;2022-12-29T04:14:08;3.10;;;0.73;;
42200;SDS011;27869;51.442;7.540;2022-12-29T04:16:34;2.97;;;0.70;;
42200;SDS011;27869;51.442;7.540;2022-12-29T04:19:03;1.23;;;0.55;;
42200;SDS011;27869;51.442;7.540;2022-12-29T04:21:30;1.35;;;0.77;;
42200;SDS011;27869;51.442;7.540;2022-12-29T04:23:56;1.38;;;0.70;;
42200;SDS011;27869;51.442;7.540;2022-12-29T04:26:24;1.63;;;0.63;;
42200;SDS011;27869;51.442;7.540;2022-12-29T04:28:51;1.02;;;0.50;;
42200;SDS011;27869;51.442;7.540;2022-12-29T04:31:18;1.27;;;0.70;;
42200;SDS011;27869;51.442;7.540;2022-12-29T04:33:45;2.83;;;0.80;;
42200;SDS011;27869;51.442;7.540;2022-12-29T04:36:12;2.47;;;0.52;;
42200;SDS011;27869;51.442;7.540;2022-12-29T04:38:39;1.45;;;0.40;;
42200;SDS011;27869;51.442;7.540;2022-12-29T04:41:06;1.35;;;0.35;;
42200;SDS011;27869;51.442;7.540;2022-12-29T04:43:35;1.95;;;0.50;;
42200;SDS011;27869;51.442;7.540;2022-12-29T04:46:02;1.48;;;0.40;;
42200;SDS011;27869;51.442;7.540;2022-12-29T04:48:28;2.58;;;0.65;;
42200;SDS011;27869;51.442;7.540;2022-12-29T04:50:55;1.58;;;0.40;;
42200;SDS011;27869;51.442;7.540;2022-12-29T04:53:22;1.77;;;0.40;;
42200;SDS011;27869;51.442;7.540;2022-12-29T04:55:49;1.55;;;0.40;;
42200;SDS011;27869;51.442;7.540;2022-12-29T04:58:17;0.45;;;0.43;;
42200;SDS011;27869;51.442;7.540;2022-12-29T05:00:45;1.90;;;0.47;;
42200;SDS011;27869;51.442;7.540;2022-12-29T05:03:12;3.10;;;0.75;;
42200;SDS011;27869;51.442;7.540;2022-12-29T05:05:39;2.38;;;0.73;;
42200;SDS011;27869;51.442;7.540;2022-12-29T05:08:06;0.93;;;0.70;;
42200;SDS011;27869;51.442;7.540;2022-12-29T05:10:33;2.08;;;0.68;;
42200;SDS011;27869;51.442;7.540;2022-12-29T05:13:00;2.88;;;0.80;;
42200;SDS011;27869;51.442;7.540;2022-12-29T05:15:27;2.47;;;0.65;;
42200;SDS011;27869;51.442;7.540;2022-12-29T05:17:55;1.48;;;0.70;;
42200;SDS011;27869;51.442;7.540;2022-12-29T05:20:22;0.75;;;0.50;;
42200;SDS011;27869;51.442;7.540;2022-12-29T05:22:49;0.73;;;0.57;;
42200;SDS011;27869;51.442;7.540;2022-12-29T05:25:16;3.35;;;0.70;;
42200;SDS011;27869;51.442;7.540;2022-12-29T05:27:43;2.75;;;0.98;;
42200;SDS011;27869;51.442;7.540;2022-12-29T05:30:10;2.10;;;0.88;;
42200;SDS011;27869;51.442;7.540;2022-12-29T05:32:38;3.38;;;1.13;;
42200;SDS011;27869;51.442;7.540;2022-12-29T05:35:06;3.92;;;1.02;;
42200;SDS011;27869;51.442;7.540;2022-12-29T05:37:34;2.58;;;0.60;;
42200;SDS011;27869;51.442;7.540;2022-12-29T05:40:01;2.50;;;0.75;;
42200;SDS011;27869;51.442;7.540;2022-12-29T05:42:28;1.95;;;0.70;;
42200;SDS011;27869;51.442;7.540;2022-12-29T05:44:55;3.03;;;0.95;;
42200;SDS011;27869;51.442;7.540;2022-12-29T05:47:22;2.25;;;0.80;;
42200;SDS011;27869;51.442;7.540;2022-12-29T05:49:49;1.98;;;0.88;;
42200;SDS011;27869;51.442;7.540;2022-12-29T05:52:18;1.98;;;0.80;;
42200;SDS011;27869;51.442;7.540;2022-12-29T05:54:44;2.45;;;0.57;;
42200;SDS011;27869;51.442;7.540;2022-12-29T05:57:11;3.05;;;0.85;;
42200;SDS011;27869;51.442;7.540;2022-12-29T05:59:38;2.95;;;1.00;;
42200;SDS011;27869;51.442;7.540;2022-12-29T06:02:05;1.63;;;0.60;;
42200;SDS011;27869;51.442;7.540;2022-12-29T06:04:32;3.58;;;1.20;;
42200;SDS011;27869;51.442;7.540;2022-12-29T06:06:59;3.95;;;0.98;;
42200;SDS011;27869;51.442;7.540;2022-12-29T06:09:27;5.38;;;0.98;;
42200;SDS011;27869;51.442;7.540;2022-12-29T06:11:54;2.92;;;0.70;;
42200;SDS011;27869;51.442;7.540;2022-12-29T06:14:20;2.55;;;0.75;;
42200;SDS011;27869;51.442;7.540;2022-12-29T06:16:47;2.17;;;0.80;;
42200;SDS011;27869;51.442;7.540;2022-12-29T06:19:14;5.05;;;1.20;;
42200;SDS011;27869;51.442;7.540;2022-12-29T06:21:41;3.53;;;1.20;;
42200;SDS011;27869;51.442;7.540;2022-12-29T06:24:08;2.22;;;0.80;;
42200;SDS011;27869;51.442;7.540;2022-12-29T06:26:37;3.53;;;0.90;;
42200;SDS011;27869;51.442;7.540;2022-12-29T06:29:05;3.60;;;0.60;;
42200;SDS011;27869;51.442;7.540;2022-12-29T06:31:33;4.95;;;0.60;;
42200;SDS011;27869;51.442;7.540;2022-12-29T06:33:59;3.50;;;1.00;;
42200;SDS011;27869;51.442;7.540;2022-12-29T06:36:27;3.40;;;0.80;;
42200;SDS011;27869;51.442;7.540;2022-12-29T06:38:54;2.00;;;0.60;;
42200;SDS011;27869;51.442;7.540;2022-12-29T06:41:21;1.88;;;0.90;;
42200;SDS011;27869;51.442;7.540;2022-12-29T06:43:49;3.25;;;0.70;;
42200;SDS011;27869;51.442;7.540;2022-12-29T06:46:17;2.55;;;0.60;;
42200;SDS011;27869;51.442;7.540;2022-12-29T06:48:43;1.90;;;0.55;;
42200;SDS011;27869;51.442;7.540;2022-12-29T06:51:10;1.13;;;0.65;;
42200;SDS011;27869;51.442;7.540;2022-12-29T06:53:37;3.10;;;0.70;;
42200;SDS011;27869;51.442;7.540;2022-12-29T06:56:04;2.20;;;0.68;;
42200;SDS011;27869;51.442;7.540;2022-12-29T06:58:31;1.98;;;0.55;;
42200;SDS011;27869;51.442;7.540;2022-12-29T07:00:59;4.28;;;0.95;;
42200;SDS011;27869;51.442;7.540;2022-12-29T07:03:26;3.38;;;0.82;;
42200;SDS011;27869;51.442;7.540;2022-12-29T07:05:53;3.13;;;0.60;;
42200;SDS011;27869;51.442;7.540;2022-12-29T07:08:20;3.30;;;0.80;;
42200;SDS011;27869;51.442;7.540;2022-12-29T07:10:47;2.20;;;0.43;;
42200;SDS011;27869;51.442;7.540;2022-12-29T07:13:14;3.22;;;0.60;;
42200;SDS011;27869;51.442;7.540;2022-12-29T07:15:41;2.22;;;0.43;;
42200;SDS011;27869;51.442;7.540;2022-12-29T07:18:09;2.95;;;0.60;;
42200;SDS011;27869;51.442;7.540;2022-12-29T07:20:36;3.85;;;0.80;;
42200;SDS011;27869;51.442;7.540;2022-12-29T07:23:02;5.13;;;0.90;;
42200;SDS011;27869;51.442;7.540;2022-12-29T07:25:29;5.95;;;0.93;;
42200;SDS011;27869;51.442;7.540;2022-12-29T07:27:56;3.72;;;1.00;;
42200;SDS011;27869;51.442;7.540;2022-12-29T07:30:23;4.47;;;0.80;;
42200;SDS011;27869;51.442;7.540;2022-12-29T07:32:50;2.78;;;0.80;;
42200;SDS011;27869;51.442;7.540;2022-12-29T07:35:18;4.18;;;0.70;;
42200;SDS011;27869;51.442;7.540;2022-12-29T07:37:45;5.90;;;1.00;;
42200;SDS011;27869;51.442;7.540;2022-12-29T07:40:12;3.65;;;0.80;;
42200;SDS011;27869;51.442;7.540;2022-12-29T07:42:39;4.28;;;0.95;;
42200;SDS011;27869;51.442;7.540;2022-12-29T07:45:06;6.28;;;1.33;;
42200;SDS011;27869;51.442;7.540;2022-12-29T07:47:35;2.67;;;0.90;;
42200;SDS011;27869;51.442;7.540;2022-12-29T07:50:02;3.83;;;0.70;;
42200;SDS011;27869;51.442;7.540;2022-12-29T07:52:30;4.05;;;0.80;;
42200;SDS011;27869;51.442;7.540;2022-12-29T07:54:57;3.35;;;0.90;;
42200;SDS011;27869;51.442;7.540;2022-12-29T07:57:24;3.30;;;0.63;;
42200;SDS011;27869;51.442;7.540;2022-12-29T07:59:51;7.05;;;1.10;;
42200;SDS011;27869;51.442;7.540;2022-12-29T08:02:18;8.70;;;2.42;;
42200;SDS011;27869;51.442;7.540;2022-12-29T08:04:44;7.90;;;1.90;;
42200;SDS011;27869;51.442;7.540;2022-12-29T08:07:11;10.02;;;2.22;;
42200;SDS011;27869;51.442;7.540;2022-12-29T08:09:40;9.18;;;1.70;;
42200;SDS011;27869;51.442;7.540;2022-12-29T08:12:08;8.63;;;2.13;;
42200;SDS011;27869;51.442;7.540;2022-12-29T08:14:36;4.78;;;0.93;;
42200;SDS011;27869;51.442;7.540;2022-12-29T08:17:03;11.27;;;2.72;;
42200;SDS011;27869;51.442;7.540;2022-12-29T08:19:30;9.82;;;2.15;;
42200;SDS011;27869;51.442;7.540;2022-12-29T08:21:56;8.52;;;1.63;;
42200;SDS011;27869;51.442;7.540;2022-12-29T08:24:23;5.90;;;1.33;;
42200;SDS011;27869;51.442;7.540;2022-12-29T08:26:52;12.85;;;2.63;;
42200;SDS011;27869;51.442;7.540;2022-12-29T08:29:18;12.38;;;2.35;;
42200;SDS011;27869;51.442;7.540;2022-12-29T08:31:46;12.20;;;3.30;;
42200;SDS011;27869;51.442;7.540;2022-12-29T08:34:13;12.50;;;2.90;;
42200;SDS011;27869;51.442;7.540;2022-12-29T08:36:40;7.78;;;1.13;;
42200;SDS011;27869;51.442;7.540;2022-12-29T08:39:07;13.95;;;3.65;;
42200;SDS011;27869;51.442;7.540;2022-12-29T08:41:34;8.85;;;2.00;;
42200;SDS011;27869;51.442;7.540;2022-12-29T08:44:02;11.02;;;2.40;;
42200;SDS011;27869;51.442;7.540;2022-12-29T08:46:29;20.83;;;5.30;;
42200;SDS011;27869;51.442;7.540;2022-12-29T08:48:56;13.13;;;2.78;;
42200;SDS011;27869;51.442;7.540;2022-12-29T08:51:23;16.45;;;4.90;;
42200;SDS011;27869;51.442;7.540;2022-12-29T08:53:50;24.90;;;7.00;;
42200;SDS011;27869;51.442;7.540;2022-12-29T08:56:17;25.55;;;8.65;;
42200;SDS011;27869;51.442;7.540;2022-12-29T08:58:44;21.42;;;6.80;;
42200;SDS011;27869;51.442;7.540;2022-12-29T09:01:12;9.32;;;1.67;;
42200;SDS011;27869;51.442;7.540;2022-12-29T09:03:39;16.10;;;4.53;;
42200;SDS011;27869;51.442;7.540;2022-12-29T09:06:06;12.95;;;3.17;;
42200;SDS011;27869;51.442;7.540;2022-12-29T09:08:33;13.63;;;3.03;;
42200;SDS011;27869;51.442;7.540;2022-12-29T09:11:05;11.65;;;1.27;;
42200;SDS011;27869;51.442;7.540;2022-12-29T09:13:33;17.88;;;5.07;;
42200;SDS011;27869;51.442;7.540;2022-12-29T09:16:00;6.82;;;1.27;;
42200;SDS011;27869;51.442;7.540;2022-12-29T09:18:28;11.35;;;2.67;;
42200;SDS011;27869;51.442;7.540;2022-12-29T09:20:56;9.23;;;1.60;;
42200;SDS011;27869;51.442;7.540;2022-12-29T09:23:24;13.45;;;2.95;;
42200;SDS011;27869;51.442;7.540;2022-12-29T09:25:51;11.80;;;2.95;;
42200;SDS011;27869;51.442;7.540;2022-12-29T09:28:18;12.68;;;3.00;;
42200;SDS011;27869;51.442;7.540;2022-12-29T09:30:45;11.93;;;2.67;;
42200;SDS011;27869;51.442;7.540;2022-12-29T09:33:12;8.77;;;2.30;;
42200;SDS011;27869;51.442;7.540;2022-12-29T09:35:42;7.88;;;1.77;;
42200;SDS011;27869;51.442;7.540;2022-12-29T09:38:10;7.85;;;1.55;;
42200;SDS011;27869;51.442;7.540;2022-12-29T09:40:37;11.45;;;3.03;;
42200;SDS011;27869;51.442;7.540;2022-12-29T09:46:00;7.43;;;2.05;;
42200;SDS011;27869;51.442;7.540;2022-12-29T09:48:35;10.73;;;2.30;;
42200;SDS011;27869;51.442;7.540;2022-12-29T09:51:08;10.38;;;1.45;;
42200;SDS011;27869;51.442;7.540;2022-12-29T09:53:40;13.98;;;3.30;;
42200;SDS011;27869;51.442;7.540;2022-12-29T09:56:10;8.85;;;2.45;;
42200;SDS011;27869;51.442;7.540;2022-12-29T09:58:42;10.75;;;2.10;;
42200;SDS011;27869;51.442;7.540;2022-12-29T10:01:17;6.05;;;1.50;;
42200;SDS011;27869;51.442;7.540;2022-12-29T10:03:54;12.77;;;2.58;;
42200;SDS011;27869;51.442;7.540;2022-12-29T10:06:25;13.50;;;3.70;;
42200;SDS011;27869;51.442;7.540;2022-12-29T10:09:00;9.13;;;2.42;;
42200;SDS011;27869;51.442;7.540;2022-12-29T10:11:33;6.97;;;1.95;;
42200;SDS011;27869;51.442;7.540;2022-12-29T10:14:20;7.55;;;1.83;;
42200;SDS011;27869;51.442;7.540;2022-12-29T10:17:10;10.23;;;2.42;;
42200;SDS011;27869;51.442;7.540;2022-12-29T10:19:57;9.40;;;1.85;;
42200;SDS011;27869;51.442;7.540;2022-12-29T10:22:42;9.23;;;1.67;;
42200;SDS011;27869;51.442;7.540;2022-12-29T10:25:18;5.88;;;1.42;;
42200;SDS011;27869;51.442;7.540;2022-12-29T10:27:47;6.60;;;1.70;;
42200;SDS011;27869;51.442;7.540;2022-12-29T10:30:15;6.55;;;1.30;;
42200;SDS011;27869;51.442;7.540;2022-12-29T10:32:46;14.15;;;2.33;;
42200;SDS011;27869;51.442;7.540;2022-12-29T10:35:18;9.35;;;1.80;;
42200;SDS011;27869;51.442;7.540;2022-12-29T10:37:50;11.77;;;2.85;;
42200;SDS011;27869;51.442;7.540;2022-12-29T10:40:24;9.63;;;1.58;;
42200;SDS011;27869;51.442;7.540;2022-12-29T10:42:55;8.45;;;1.20;;
42200;SDS011;27869;51.442;7.540;2022-12-29T10:45:24;6.57;;;1.48;;
42200;SDS011;27869;51.442;7.540;2022-12-29T10:47:56;6.93;;;1.50;;
42200;SDS011;27869;51.442;7.540;2022-12-29T10:50:26;7.45;;;1.60;;
42200;SDS011;27869;51.442;7.540;2022-12-29T10:52:56;10.00;;;1.65;;
42200;SDS011;27869;51.442;7.540;2022-12-29T10:55:27;10.52;;;1.60;;
42200;SDS011;27869;51.442;7.540;2022-12-29T10:57:59;8.55;;;1.40;;
42200;SDS011;27869;51.442;7.540;2022-12-29T11:00:30;8.30;;;1.50;;
42200;SDS011;27869;51.442;7.540;2022-12-29T11:03:02;6.43;;;1.50;;
42200;SDS011;27869;51.442;7.540;2022-12-29T11:05:49;8.18;;;1.60;;
42200;SDS011;27869;51.442;7.540;2022-12-29T11:08:22;12.77;;;2.05;;
42200;SDS011;27869;51.442;7.540;2022-12-29T11:10:57;11.45;;;2.40;;
42200;SDS011;27869;51.442;7.540;2022-12-29T11:13:27;12.38;;;3.30;;
42200;SDS011;27869;51.442;7.540;2022-12-29T11:15:55;8.77;;;1.35;;
42200;SDS011;27869;51.442;7.540;2022-12-29T11:18:23;10.13;;;2.13;;
42200;SDS011;27869;51.442;7.540;2022-12-29T11:20:51;11.13;;;1.75;;
42200;SDS011;27869;51.442;7.540;2022-12-29T11:23:25;11.60;;;2.35;;
42200;SDS011;27869;51.442;7.540;2022-12-29T11:26:06;31.60;;;10.00;;
42200;SDS011;27869;51.442;7.540;2022-12-29T11:28:39;12.85;;;2.50;;
42200;SDS011;27869;51.442;7.540;2022-12-29T11:31:07;9.82;;;1.88;;
42200;SDS011;27869;51.442;7.540;2022-12-29T11:33:35;13.25;;;3.03;;
42200;SDS011;27869;51.442;7.540;2022-12-29T11:36:04;9.82;;;1.95;;
42200;SDS011;27869;51.442;7.540;2022-12-29T11:38:34;8.48;;;1.40;;
42200;SDS011;27869;51.442;7.540;2022-12-29T11:41:04;8.60;;;1.60;;
42200;SDS011;27869;51.442;7.540;2022-12-29T11:43:33;5.18;;;1.10;;
42200;SDS011;27869;51.442;7.540;2022-12-29T11:46:06;10.55;;;1.80;;
42200;SDS011;27869;51.442;7.540;2022-12-29T11:48:39;14.60;;;2.55;;
42200;SDS011;27869;51.442;7.540;2022-12-29T11:51:07;13.70;;;2.33;;
42200;SDS011;27869;51.442;7.540;2022-12-29T11:53:38;10.45;;;1.77;;
42200;SDS011;27869;51.442;7.540;2022-12-29T11:56:09;8.07;;;1.70;;
42200;SDS011;27869;51.442;7.540;2022-12-29T11:58:40;8.55;;;1.48;;
42200;SDS011;27869;51.442;7.540;2022-12-29T12:01:10;7.95;;;1.45;;
42200;SDS011;27869;51.442;7.540;2022-12-29T12:03:43;10.95;;;1.45;;
42200;SDS011;27869;51.442;7.540;2022-12-29T12:06:14;7.32;;;1.40;;
42200;SDS011;27869;51.442;7.540;2022-12-29T12:08:46;8.82;;;1.55;;
42200;SDS011;27869;51.442;7.540;2022-12-29T12:11:18;12.70;;;3.05;;
42200;SDS011;27869;51.442;7.540;2022-12-29T12:13:50;17.70;;;6.00;;
42200;SDS011;27869;51.442;7.540;2022-12-29T12:16:26;18.73;;;4.25;;
42200;SDS011;27869;51.442;7.540;2022-12-29T12:18:58;17.23;;;4.07;;
42200;SDS011;27869;51.442;7.540;2022-12-29T12:21:30;15.00;;;3.63;;
42200;SDS011;27869;51.442;7.540;2022-12-29T12:26:55;7.30;;;1.10;;
42200;SDS011;27869;51.442;7.540;2022-12-29T12:29:29;9.50;;;1.75;;
42200;SDS011;27869;51.442;7.540;2022-12-29T12:32:04;6.32;;;1.35;;
42200;SDS011;27869;51.442;7.540;2022-12-29T12:34:42;9.40;;;2.25;;
42200;SDS011;27869;51.442;7.540;2022-12-29T12:37:24;13.27;;;2.50;;
42200;SDS011;27869;51.442;7.540;2022-12-29T12:40:11;9.27;;;2.17;;
42200;SDS011;27869;51.442;7.540;2022-12-29T12:42:53;12.07;;;2.50;;
42200;SDS011;27869;51.442;7.540;2022-12-29T12:45:38;11.18;;;2.00;;
42200;SDS011;27869;51.442;7.540;2022-12-29T12:48:18;8.75;;;1.05;;
42200;SDS011;27869;51.442;7.540;2022-12-29T12:50:58;5.53;;;1.20;;
42200;SDS011;27869;51.442;7.540;2022-12-29T12:53:37;8.45;;;1.40;;
42200;SDS011;27869;51.442;7.540;2022-12-29T12:56:19;9.00;;;1.30;;
42200;SDS011;27869;51.442;7.540;2022-12-29T12:58:58;8.40;;;1.30;;
42200;SDS011;27869;51.442;7.540;2022-12-29T13:01:34;8.35;;;1.40;;
42200;SDS011;27869;51.442;7.540;2022-12-29T13:07:07;11.02;;;1.60;;
42200;SDS011;27869;51.442;7.540;2022-12-29T13:09:47;6.70;;;1.13;;
42200;SDS011;27869;51.442;7.540;2022-12-29T13:12:24;8.27;;;1.80;;
42200;SDS011;27869;51.442;7.540;2022-12-29T13:15:03;9.82;;;1.95;;
42200;SDS011;27869;51.442;7.540;2022-12-29T13:17:41;9.48;;;2.15;;
42200;SDS011;27869;51.442;7.540;2022-12-29T13:20:18;9.40;;;1.83;;
42200;SDS011;27869;51.442;7.540;2022-12-29T13:22:54;6.80;;;1.27;;
42200;SDS011;27869;51.442;7.540;2022-12-29T13:25:27;4.93;;;0.85;;
42200;SDS011;27869;51.442;7.540;2022-12-29T13:28:03;4.60;;;0.95;;
42200;SDS011;27869;51.442;7.540;2022-12-29T13:30:38;7.50;;;1.33;;
42200;SDS011;27869;51.442;7.540;2022-12-29T13:33:13;8.32;;;1.60;;
42200;SDS011;27869;51.442;7.540;2022-12-29T13:35:51;8.80;;;1.52;;
42200;SDS011;27869;51.442;7.540;2022-12-29T13:38:24;9.10;;;1.30;;
42200;SDS011;27869;51.442;7.540;2022-12-29T13:40:56;7.43;;;1.50;;
42200;SDS011;27869;51.442;7.540;2022-12-29T13:43:30;18.80;;;4.63;;
42200;SDS011;27869;51.442;7.540;2022-12-29T13:46:01;16.75;;;3.15;;
42200;SDS011;27869;51.442;7.540;2022-12-29T13:48:37;12.07;;;2.78;;
42200;SDS011;27869;51.442;7.540;2022-12-29T13:51:07;15.07;;;3.90;;
42200;SDS011;27869;51.442;7.540;2022-12-29T13:53:37;19.90;;;5.32;;
42200;SDS011;27869;51.442;7.540;2022-12-29T13:56:15;15.85;;;3.20;;
42200;SDS011;27869;51.442;7.540;2022-12-29T13:58:52;12.40;;;3.00;;
42200;SDS011;27869;51.442;7.540;2022-12-29T14:01:21;9.95;;;2.08;;
42200;SDS011;27869;51.442;7.540;2022-12-29T14:03:55;11.50;;;1.70;;
42200;SDS011;27869;51.442;7.540;2022-12-29T14:06:23;12.52;;;2.75;;
42200;SDS011;27869;51.442;7.540;2022-12-29T14:08:53;8.05;;;1.20;;
42200;SDS011;27869;51.442;7.540;2022-12-29T14:11:28;10.30;;;1.30;;
42200;SDS011;27869;51.442;7.540;2022-12-29T14:13:58;12.45;;;2.00;;
42200;SDS011;27869;51.442;7.540;2022-12-29T14:16:36;7.80;;;1.20;;
42200;SDS011;27869;51.442;7.540;2022-12-29T14:19:09;12.55;;;2.20;;
42200;SDS011;27869;51.442;7.540;2022-12-29T14:21:41;9.27;;;1.60;;
42200;SDS011;27869;51.442;7.540;2022-12-29T14:30:07;8.25;;;1.50;;
42200;SDS011;27869;51.442;7.540;2022-12-29T14:33:18;5.32;;;0.77;;
42200;SDS011;27869;51.442;7.540;2022-12-29T14:35:47;5.07;;;0.88;;
42200;SDS011;27869;51.442;7.540;2022-12-29T14:38:18;8.13;;;1.15;;
42200;SDS011;27869;51.442;7.540;2022-12-29T14:40:48;7.90;;;1.40;;
42200;SDS011;27869;51.442;7.540;2022-12-29T14:43:20;11.32;;;2.72;;
42200;SDS011;27869;51.442;7.540;2022-12-29T14:45:59;19.73;;;5.03;;
42200;SDS011;27869;51.442;7.540;2022-12-29T14:48:29;10.30;;;1.50;;
42200;SDS011;27869;51.442;7.540;2022-12-29T14:51:15;9.77;;;1.80;;
42200;SDS011;27869;51.442;7.540;2022-12-29T14:53:46;9.13;;;1.90;;
42200;SDS011;27869;51.442;7.540;2022-12-29T14:56:15;10.10;;;1.63;;
42200;SDS011;27869;51.442;7.540;2022-12-29T14:58:47;8.85;;;1.73;;
42200;SDS011;27869;51.442;7.540;2022-12-29T15:01:21;8.93;;;1.20;;
42200;SDS011;27869;51.442;7.540;2022-12-29T15:03:53;4.20;;;0.98;;
42200;SDS011;27869;51.442;7.540;2022-12-29T15:06:23;5.10;;;1.15;;
42200;SDS011;27869;51.442;7.540;2022-12-29T15:08:55;8.00;;;1.00;;
42200;SDS011;27869;51.442;7.540;2022-12-29T15:11:31;4.03;;;1.02;;
42200;SDS011;27869;51.442;7.540;2022-12-29T15:14:27;6.65;;;1.02;;
42200;SDS011;27869;51.442;7.540;2022-12-29T15:17:01;9.45;;;1.70;;
42200;SDS011;27869;51.442;7.540;2022-12-29T15:19:35;4.40;;;1.35;;
42200;SDS011;27869;51.442;7.540;2022-12-29T15:22:02;7.55;;;1.30;;
42200;SDS011;27869;51.442;7.540;2022-12-29T15:24:29;5.78;;;1.02;;
42200;SDS011;27869;51.442;7.540;2022-12-29T15:26:56;9.15;;;1.52;;
42200;SDS011;27869;51.442;7.540;2022-12-29T15:29:32;7.85;;;1.33;;
42200;SDS011;27869;51.442;7.540;2022-12-29T15:34:48;15.48;;;3.92;;